Time;durP1;ratioP1;P1;durP2;ratioP2;P2;SDS_P1;SDS_P2;PMS_P1;PMS_P2;Temp;Humidity;BMP_temperature;BMP_pressure;BME280_temperature;BME280_humidity;BME280_pressure;Samples;Min_cycle;Max_cycle;Signal;HPM_P1;HPM_P2
2023/11/05 00:00:53;;;;;;;10.20;6.13;;;;;;;;;;4273162;33;418763;-87
2023/11/05 00:03:19;;;;;;;11.70;7.90;;;;;;;;;;4285972;33;317714;-85
2023/11/05 00:05:46;;;;;;;12.67;6.87;;;;;;;;;;4269181;33;318227;-87
2023/11/05 00:08:15;;;;;;;12.63;6.23;;;;;;;;;;4284151;33;318621;-86
2023/11/05 00:10:41;;;;;;;6.13;4.93;;;;;;;;;;4267614;33;318314;-90
2023/11/05 00:13:08;;;;;;;16.50;6.40;;;;;;;;;;4288334;33;316764;-86
2023/11/05 00:15:35;;;;;;;9.90;5.03;;;;;;;;;;4289213;33;353692;-87
2023/11/05 00:18:02;;;;;;;9.60;4.43;;;;;;;;;;4295087;33;317494;-84
2023/11/05 00:20:28;;;;;;;6.20;4.20;;;;;;;;;;4277309;33;317420;-86
2023/11/05 00:22:55;;;;;;;6.47;4.47;;;;;;;;;;4279885;33;317200;-87
2023/11/05 00:25:23;;;;;;;7.17;4.40;;;;;;;;;;4287214;33;355551;-87
2023/11/05 00:27:50;;;;;;;7.53;4.73;;;;;;;;;;4282558;33;342063;-85
2023/11/05 00:30:17;;;;;;;8.47;4.00;;;;;;;;;;4286510;33;316779;-83
2023/11/05 00:32:44;;;;;;;6.40;3.30;;;;;;;;;;4275212;33;317911;-87
2023/11/05 00:35:11;;;;;;;6.93;4.50;;;;;;;;;;4296622;33;317389;-86
2023/11/05 00:37:38;;;;;;;8.93;5.47;;;;;;;;;;4284123;33;317156;-81
2023/11/05 00:40:05;;;;;;;8.43;4.90;;;;;;;;;;4293136;33;317268;-84
2023/11/05 00:42:34;;;;;;;11.07;5.27;;;;;;;;;;4278526;33;317656;-81
2023/11/05 00:45:00;;;;;;;6.27;4.17;;;;;;;;;;4293378;33;318296;-82
2023/11/05 00:47:27;;;;;;;6.17;4.30;;;;;;;;;;4283081;33;317357;-82
2023/11/05 00:49:54;;;;;;;8.30;3.90;;;;;;;;;;4286281;33;317003;-81
2023/11/05 00:52:21;;;;;;;8.77;3.97;;;;;;;;;;4294090;33;317771;-81
2023/11/05 00:54:47;;;;;;;5.70;4.23;;;;;;;;;;4270808;33;318156;-83
2023/11/05 00:57:14;;;;;;;7.27;4.67;;;;;;;;;;4275066;33;317328;-81
2023/11/05 00:59:42;;;;;;;8.57;4.57;;;;;;;;;;4276648;33;317524;-82
2023/11/05 01:02:09;;;;;;;5.20;3.40;;;;;;;;;;4277177;33;344039;-82
2023/11/05 01:04:36;;;;;;;11.93;4.10;;;;;;;;;;4265308;33;317826;-82
2023/11/05 01:07:02;;;;;;;6.17;4.03;;;;;;;;;;4291512;33;317649;-84
2023/11/05 01:09:29;;;;;;;10.70;4.67;;;;;;;;;;4279136;33;317266;-81
2023/11/05 01:11:56;;;;;;;6.10;4.30;;;;;;;;;;4286446;33;318472;-87
2023/11/05 01:14:23;;;;;;;5.33;3.40;;;;;;;;;;4294725;33;317401;-87
2023/11/05 01:16:51;;;;;;;10.20;3.30;;;;;;;;;;4283718;33;317603;-86
2023/11/05 01:19:17;;;;;;;7.47;4.60;;;;;;;;;;4301981;33;317865;-87
2023/11/05 01:21:44;;;;;;;5.40;3.60;;;;;;;;;;4281101;33;317247;-87
2023/11/05 01:24:11;;;;;;;5.00;3.53;;;;;;;;;;4302185;33;317613;-88
2023/11/05 01:26:38;;;;;;;8.83;3.97;;;;;;;;;;4278589;33;317089;-87
2023/11/05 01:29:05;;;;;;;6.47;3.63;;;;;;;;;;4287851;33;317358;-87
2023/11/05 01:31:31;;;;;;;6.93;3.93;;;;;;;;;;4276509;33;316661;-81
2023/11/05 01:33:59;;;;;;;9.17;3.53;;;;;;;;;;4285777;33;317156;-86
2023/11/05 01:36:26;;;;;;;5.70;3.80;;;;;;;;;;4285035;33;317214;-82
2023/11/05 01:38:53;;;;;;;8.63;4.37;;;;;;;;;;4282392;33;316603;-87
2023/11/05 01:41:20;;;;;;;10.83;4.97;;;;;;;;;;4291461;33;317112;-87
2023/11/05 01:43:46;;;;;;;7.97;5.40;;;;;;;;;;4292389;33;318392;-86
2023/11/05 01:46:13;;;;;;;11.87;6.57;;;;;;;;;;4301395;33;317304;-86
2023/11/05 01:48:40;;;;;;;10.17;5.90;;;;;;;;;;4284352;33;318481;-87
2023/11/05 01:51:13;;;;;;;10.50;5.43;;;;;;;;;;4295597;33;318755;-87
2023/11/05 01:53:40;;;;;;;10.07;5.50;;;;;;;;;;4289079;33;318293;-86
2023/11/05 01:56:08;;;;;;;6.60;4.00;;;;;;;;;;4296635;33;317835;-84
2023/11/05 01:58:35;;;;;;;6.40;3.70;;;;;;;;;;4274871;33;317294;-85
2023/11/05 02:01:02;;;;;;;13.27;3.77;;;;;;;;;;4288575;33;317194;-82
2023/11/05 02:03:28;;;;;;;4.63;2.80;;;;;;;;;;4272186;33;318408;-85
2023/11/05 02:05:56;;;;;;;5.60;3.90;;;;;;;;;;4284022;33;316632;-81
2023/11/05 02:08:24;;;;;;;6.37;3.83;;;;;;;;;;4295920;33;317167;-81
2023/11/05 02:10:51;;;;;;;8.67;5.07;;;;;;;;;;4284186;33;316730;-82
2023/11/05 02:13:17;;;;;;;6.10;4.43;;;;;;;;;;4285641;33;317304;-82
2023/11/05 02:15:45;;;;;;;10.27;6.53;;;;;;;;;;4275616;33;317393;-81
2023/11/05 02:18:11;;;;;;;9.57;6.73;;;;;;;;;;4285449;33;317585;-82
2023/11/05 02:20:38;;;;;;;13.03;8.17;;;;;;;;;;4270805;33;317437;-82
2023/11/05 02:23:07;;;;;;;9.47;6.47;;;;;;;;;;4300795;33;318466;-82
2023/11/05 02:25:35;;;;;;;9.20;5.43;;;;;;;;;;4290266;33;316653;-88
2023/11/05 02:28:03;;;;;;;10.43;5.57;;;;;;;;;;4288057;33;317323;-88
2023/11/05 02:30:30;;;;;;;6.00;4.23;;;;;;;;;;4277453;33;318175;-85
2023/11/05 02:32:57;;;;;;;9.87;5.30;;;;;;;;;;4280782;33;316594;-82
2023/11/05 02:35:23;;;;;;;13.50;5.93;;;;;;;;;;4288816;33;317190;-82
2023/11/05 02:37:50;;;;;;;8.97;5.57;;;;;;;;;;4280686;33;318220;-85
2023/11/05 02:40:17;;;;;;;9.33;6.37;;;;;;;;;;4301210;33;316640;-87
2023/11/05 02:42:45;;;;;;;7.33;5.10;;;;;;;;;;4273321;33;317169;-84
2023/11/05 02:45:12;;;;;;;6.27;4.23;;;;;;;;;;4286830;33;317031;-82
2023/11/05 02:47:39;;;;;;;13.70;5.70;;;;;;;;;;4276840;33;317243;-82
2023/11/05 02:50:07;;;;;;;9.73;5.83;;;;;;;;;;4285395;33;357453;-82
2023/11/05 02:52:34;;;;;;;7.63;5.73;;;;;;;;;;4277412;33;317365;-83
2023/11/05 02:55:01;;;;;;;6.37;5.33;;;;;;;;;;4286190;33;316711;-82
2023/11/05 02:57:28;;;;;;;7.00;4.63;;;;;;;;;;4285519;33;317730;-82
2023/11/05 02:59:56;;;;;;;10.03;5.33;;;;;;;;;;4300968;33;317358;-85
2023/11/05 03:02:23;;;;;;;11.30;5.80;;;;;;;;;;4300680;33;318322;-81
2023/11/05 03:04:49;;;;;;;7.73;5.30;;;;;;;;;;4264895;33;318733;-82
2023/11/05 03:07:16;;;;;;;7.03;4.80;;;;;;;;;;4294355;33;321566;-82
2023/11/05 03:09:44;;;;;;;11.73;5.80;;;;;;;;;;4276613;33;317527;-83
2023/11/05 03:12:11;;;;;;;8.90;5.87;;;;;;;;;;4293691;33;318640;-87
2023/11/05 03:14:38;;;;;;;8.03;5.47;;;;;;;;;;4282679;33;331532;-87
2023/11/05 03:17:06;;;;;;;11.07;6.37;;;;;;;;;;4300832;33;316873;-87
2023/11/05 03:19:33;;;;;;;7.00;5.07;;;;;;;;;;4290155;33;318329;-85
2023/11/05 03:22:00;;;;;;;7.23;5.40;;;;;;;;;;4290949;33;317254;-82
2023/11/05 03:24:26;;;;;;;7.93;5.30;;;;;;;;;;4294661;33;317635;-82
2023/11/05 03:26:54;;;;;;;8.47;4.80;;;;;;;;;;4286703;33;317316;-82
2023/11/05 03:29:21;;;;;;;6.93;4.97;;;;;;;;;;4285726;33;317315;-83
2023/11/05 03:31:49;;;;;;;7.50;5.10;;;;;;;;;;4275030;33;317265;-84
2023/11/05 03:34:18;;;;;;;8.33;6.10;;;;;;;;;;4286171;33;316807;-81
2023/11/05 03:36:44;;;;;;;13.93;6.80;;;;;;;;;;4273524;33;317668;-82
2023/11/05 03:39:11;;;;;;;10.53;6.47;;;;;;;;;;4285952;33;318203;-82
2023/11/05 03:41:38;;;;;;;11.00;6.40;;;;;;;;;;4279509;33;318534;-81
2023/11/05 03:44:05;;;;;;;10.97;6.13;;;;;;;;;;4300981;33;318379;-82
2023/11/05 03:46:32;;;;;;;9.20;6.20;;;;;;;;;;4287894;33;345539;-82
2023/11/05 03:48:59;;;;;;;9.47;6.27;;;;;;;;;;4299075;33;317743;-82
2023/11/05 03:51:27;;;;;;;11.00;6.30;;;;;;;;;;4293584;33;316796;-82
2023/11/05 03:53:54;;;;;;;9.53;5.93;;;;;;;;;;4279627;33;418967;-87
2023/11/05 03:56:20;;;;;;;9.67;6.20;;;;;;;;;;4280177;33;316795;-86
2023/11/05 03:58:47;;;;;;;10.80;6.00;;;;;;;;;;4271208;33;334114;-85
2023/11/05 04:01:18;;;;;;;9.20;5.57;;;;;;;;;;4289345;33;318722;-82
2023/11/05 04:03:45;;;;;;;7.77;5.23;;;;;;;;;;4282066;33;317421;-87
2023/11/05 04:06:11;;;;;;;11.43;5.30;;;;;;;;;;4306529;33;317515;-84
2023/11/05 04:08:39;;;;;;;12.27;5.47;;;;;;;;;;4284303;33;335744;-81
2023/11/05 04:11:06;;;;;;;7.43;4.27;;;;;;;;;;4295088;33;317725;-77
2023/11/05 04:13:33;;;;;;;8.50;4.63;;;;;;;;;;4302726;33;316990;-78
2023/11/05 04:16:00;;;;;;;6.33;4.43;;;;;;;;;;4306828;33;317537;-81
2023/11/05 04:18:26;;;;;;;6.23;4.70;;;;;;;;;;4292063;33;317345;-83
2023/11/05 04:20:53;;;;;;;11.40;5.27;;;;;;;;;;4290757;33;317684;-83
2023/11/05 04:23:20;;;;;;;9.00;5.60;;;;;;;;;;4295180;33;318037;-82
2023/11/05 04:25:48;;;;;;;9.93;5.50;;;;;;;;;;4291458;33;317361;-81
2023/11/05 04:28:15;;;;;;;8.70;4.80;;;;;;;;;;4290644;33;317277;-81
2023/11/05 04:30:42;;;;;;;9.57;6.00;;;;;;;;;;4271037;33;317396;-82
2023/11/05 04:33:09;;;;;;;13.37;6.83;;;;;;;;;;4287708;33;317279;-81
2023/11/05 04:35:35;;;;;;;14.17;7.00;;;;;;;;;;4277193;33;318512;-82
2023/11/05 04:38:02;;;;;;;11.53;6.70;;;;;;;;;;4294979;33;318342;-81
2023/11/05 04:40:29;;;;;;;12.07;6.47;;;;;;;;;;4275538;33;317689;-81
2023/11/05 04:42:57;;;;;;;12.57;6.37;;;;;;;;;;4289851;33;318695;-82
2023/11/05 04:45:23;;;;;;;16.87;7.33;;;;;;;;;;4302620;33;318361;-82
2023/11/05 04:47:50;;;;;;;17.63;8.53;;;;;;;;;;4279286;33;318893;-82
2023/11/05 04:50:17;;;;;;;11.13;6.33;;;;;;;;;;4286221;33;317960;-82
2023/11/05 04:52:44;;;;;;;9.37;5.67;;;;;;;;;;4274606;33;318569;-82
2023/11/05 04:55:10;;;;;;;9.97;5.90;;;;;;;;;;4299373;33;317531;-82
2023/11/05 04:57:37;;;;;;;9.93;5.47;;;;;;;;;;4284806;33;317319;-82
2023/11/05 05:00:08;;;;;;;13.70;5.40;;;;;;;;;;4302271;33;317547;-83
2023/11/05 05:02:35;;;;;;;7.77;5.33;;;;;;;;;;4286506;33;318247;-81
2023/11/05 05:05:02;;;;;;;15.97;8.57;;;;;;;;;;4291471;33;317339;-82
2023/11/05 05:07:29;;;;;;;32.17;14.30;;;;;;;;;;4285479;33;318580;-84
2023/11/05 05:09:56;;;;;;;26.57;14.07;;;;;;;;;;4287563;33;319369;-88
2023/11/05 05:12:23;;;;;;;21.40;11.90;;;;;;;;;;4292156;33;319889;-85
2023/11/05 05:14:50;;;;;;;25.90;15.53;;;;;;;;;;4285534;33;319961;-87
2023/11/05 05:17:18;;;;;;;33.17;21.00;;;;;;;;;;4300668;33;319051;-84
2023/11/05 05:19:45;;;;;;;34.43;22.63;;;;;;;;;;4288534;33;360450;-88
2023/11/05 05:22:12;;;;;;;23.50;16.43;;;;;;;;;;4291395;33;333103;-87
2023/11/05 05:24:39;;;;;;;23.43;13.80;;;;;;;;;;4284098;33;319853;-85
2023/11/05 05:27:06;;;;;;;26.73;15.30;;;;;;;;;;4297128;33;318935;-87
2023/11/05 05:29:32;;;;;;;31.73;16.97;;;;;;;;;;4276474;33;319686;-84
2023/11/05 05:32:00;;;;;;;21.27;11.70;;;;;;;;;;4286231;33;318861;-85
2023/11/05 05:34:28;;;;;;;27.83;12.13;;;;;;;;;;4277474;33;319025;-86
2023/11/05 05:36:55;;;;;;;26.60;13.30;;;;;;;;;;4282578;33;319939;-88
2023/11/05 05:39:21;;;;;;;25.40;14.37;;;;;;;;;;4297380;33;318749;-85
2023/11/05 05:41:48;;;;;;;25.47;12.43;;;;;;;;;;4288281;33;319269;-87
2023/11/05 05:44:15;;;;;;;23.13;12.87;;;;;;;;;;4286799;33;318828;-86
2023/11/05 05:46:42;;;;;;;19.50;13.17;;;;;;;;;;4269901;33;319566;-87
2023/11/05 05:49:09;;;;;;;25.93;15.40;;;;;;;;;;4285739;33;335218;-81
2023/11/05 05:51:38;;;;;;;30.03;18.80;;;;;;;;;;4279425;33;319437;-82
2023/11/05 05:54:05;;;;;;;226.37;151.97;;;;;;;;;;4290431;33;321440;-81
2023/11/05 05:56:32;;;;;;;121.90;86.37;;;;;;;;;;4272455;33;321461;-82
2023/11/05 05:58:59;;;;;;;46.87;25.83;;;;;;;;;;4299107;33;320428;-81
2023/11/05 06:01:26;;;;;;;38.70;22.80;;;;;;;;;;4301140;33;319247;-82
2023/11/05 06:03:53;;;;;;;32.60;22.83;;;;;;;;;;4280768;33;419228;-82
2023/11/05 06:06:19;;;;;;;41.60;25.67;;;;;;;;;;4285419;33;319463;-81
2023/11/05 06:08:47;;;;;;;48.07;29.80;;;;;;;;;;4275711;33;361396;-81
2023/11/05 06:11:14;;;;;;;52.20;33.20;;;;;;;;;;4284618;33;344387;-82
2023/11/05 06:13:41;;;;;;;44.17;30.00;;;;;;;;;;4289775;33;319492;-82
2023/11/05 06:16:08;;;;;;;39.40;28.10;;;;;;;;;;4296594;33;319646;-82
2023/11/05 06:18:35;;;;;;;40.93;24.47;;;;;;;;;;4280115;33;318883;-83
2023/11/05 06:21:02;;;;;;;42.27;27.80;;;;;;;;;;4299360;33;318855;-83
2023/11/05 06:23:28;;;;;;;52.60;29.03;;;;;;;;;;4279660;33;359563;-82
2023/11/05 06:25:56;;;;;;;42.60;29.70;;;;;;;;;;4301341;33;319689;-88
2023/11/05 06:28:23;;;;;;;54.93;37.97;;;;;;;;;;4289995;33;319580;-82
2023/11/05 06:30:50;;;;;;;52.10;29.93;;;;;;;;;;4270176;33;319702;-88
2023/11/05 06:33:16;;;;;;;35.20;22.47;;;;;;;;;;4285575;33;319327;-87
2023/11/05 06:35:43;;;;;;;27.07;19.73;;;;;;;;;;4274952;33;359500;-84
2023/11/05 06:38:10;;;;;;;26.27;18.07;;;;;;;;;;4294102;33;320316;-83
2023/11/05 06:40:37;;;;;;;25.83;16.53;;;;;;;;;;4268960;33;319228;-85
2023/11/05 06:43:05;;;;;;;22.77;14.47;;;;;;;;;;4284743;33;319446;-82
2023/11/05 06:45:32;;;;;;;19.07;13.43;;;;;;;;;;4273469;33;319602;-85
2023/11/05 06:47:58;;;;;;;20.63;14.87;;;;;;;;;;4281708;33;319374;-86
2023/11/05 06:50:25;;;;;;;20.93;13.83;;;;;;;;;;4283760;33;319531;-85
2023/11/05 06:52:52;;;;;;;21.57;10.83;;;;;;;;;;4261506;33;420123;-88
2023/11/05 06:55:19;;;;;;;21.47;11.60;;;;;;;;;;4283796;33;319687;-84
2023/11/05 06:57:46;;;;;;;14.27;9.97;;;;;;;;;;4272211;33;319976;-85
2023/11/05 07:00:15;;;;;;;19.70;11.57;;;;;;;;;;4282610;33;318361;-83
2023/11/05 07:02:42;;;;;;;24.17;13.17;;;;;;;;;;4267082;33;319412;-86
2023/11/05 07:05:09;;;;;;;18.33;12.83;;;;;;;;;;4284102;33;319486;-88
2023/11/05 07:07:36;;;;;;;22.73;12.13;;;;;;;;;;4274910;33;319939;-86
2023/11/05 07:10:04;;;;;;;19.77;11.07;;;;;;;;;;4285676;33;319955;-87
2023/11/05 07:12:31;;;;;;;14.97;10.23;;;;;;;;;;4273777;33;319802;-87
2023/11/05 07:14:58;;;;;;;24.03;12.50;;;;;;;;;;4282314;33;319679;-87
2023/11/05 07:17:26;;;;;;;16.47;10.87;;;;;;;;;;4284717;33;319483;-88
2023/11/05 07:19:53;;;;;;;16.50;10.13;;;;;;;;;;4273406;33;420404;-89
2023/11/05 07:22:20;;;;;;;8.30;5.93;;;;;;;;;;4285166;33;319377;-87
2023/11/05 07:24:47;;;;;;;17.70;9.90;;;;;;;;;;4265853;33;353402;-87
2023/11/05 07:27:14;;;;;;;12.30;6.93;;;;;;;;;;4285204;33;317660;-87
2023/11/05 07:29:44;;;;;;;10.10;5.87;;;;;;;;;;4275003;33;318629;-85
2023/11/05 07:32:11;;;;;;;8.87;5.93;;;;;;;;;;4286295;33;318745;-86
2023/11/05 07:34:39;;;;;;;10.50;5.70;;;;;;;;;;4268500;33;317662;-85
2023/11/05 07:37:06;;;;;;;10.13;4.30;;;;;;;;;;4285641;33;317945;-88
2023/11/05 07:39:33;;;;;;;6.40;3.57;;;;;;;;;;4275607;33;318676;-85
2023/11/05 07:42:00;;;;;;;12.60;4.53;;;;;;;;;;4276812;33;317150;-85
2023/11/05 07:44:27;;;;;;;10.33;3.70;;;;;;;;;;4264090;33;318517;-87
2023/11/05 07:46:53;;;;;;;7.70;3.53;;;;;;;;;;4271600;33;318160;-85
2023/11/05 07:49:20;;;;;;;5.47;3.93;;;;;;;;;;4278388;33;317037;-86
2023/11/05 07:51:48;;;;;;;9.83;3.50;;;;;;;;;;4274555;33;316753;-87
2023/11/05 07:54:15;;;;;;;9.20;3.23;;;;;;;;;;4285846;33;316615;-86
2023/11/05 07:56:42;;;;;;;6.53;2.63;;;;;;;;;;4255604;33;317271;-87
2023/11/05 07:59:09;;;;;;;4.07;2.33;;;;;;;;;;4283164;33;317283;-88
2023/11/05 08:01:36;;;;;;;3.73;2.17;;;;;;;;;;4273743;33;316605;-87
2023/11/05 08:04:03;;;;;;;2.67;2.40;;;;;;;;;;4284992;33;317474;-88
2023/11/05 08:06:30;;;;;;;4.43;2.10;;;;;;;;;;4273654;33;317113;-84
2023/11/05 08:08:58;;;;;;;2.80;2.40;;;;;;;;;;4276002;33;317333;-87
2023/11/05 08:11:24;;;;;;;3.83;2.20;;;;;;;;;;4284376;33;317340;-83
2023/11/05 08:13:51;;;;;;;7.37;2.37;;;;;;;;;;4273684;33;317558;-84
2023/11/05 08:16:18;;;;;;;2.50;2.10;;;;;;;;;;4283435;33;317248;-82
2023/11/05 08:18:44;;;;;;;3.10;2.40;;;;;;;;;;4262058;33;317324;-86
2023/11/05 08:21:11;;;;;;;3.50;2.20;;;;;;;;;;4282445;33;317353;-83
2023/11/05 08:23:38;;;;;;;4.47;2.97;;;;;;;;;;4274651;33;317623;-82
2023/11/05 08:26:06;;;;;;;7.67;2.13;;;;;;;;;;4282982;33;316981;-82
2023/11/05 08:28:33;;;;;;;4.27;3.07;;;;;;;;;;4273153;33;317278;-81
2023/11/05 08:31:00;;;;;;;5.57;2.13;;;;;;;;;;4286757;33;317148;-86
2023/11/05 08:33:27;;;;;;;5.10;2.10;;;;;;;;;;4278864;33;316747;-84
2023/11/05 08:35:54;;;;;;;3.63;2.10;;;;;;;;;;4275850;33;317155;-82
2023/11/05 08:38:21;;;;;;;4.43;2.30;;;;;;;;;;4283144;33;317306;-82
2023/11/05 08:40:49;;;;;;;3.40;2.10;;;;;;;;;;4269067;33;354479;-83
2023/11/05 08:43:17;;;;;;;4.53;2.73;;;;;;;;;;4283864;33;316896;-82
2023/11/05 08:45:44;;;;;;;3.17;2.30;;;;;;;;;;4266657;33;316863;-90
2023/11/05 08:48:11;;;;;;;5.63;3.40;;;;;;;;;;4288074;33;317221;-86
2023/11/05 08:50:39;;;;;;;5.83;3.50;;;;;;;;;;4269236;33;317119;-87
2023/11/05 08:53:05;;;;;;;3.70;2.00;;;;;;;;;;4287778;33;317164;-86
2023/11/05 08:55:35;;;;;;;5.03;2.00;;;;;;;;;;4277873;33;317544;-88
2023/11/05 08:58:02;;;;;;;2.83;1.90;;;;;;;;;;4286432;33;317432;-87
2023/11/05 09:00:34;;;;;;;4.13;1.77;;;;;;;;;;4276417;33;317597;-89
2023/11/05 09:03:01;;;;;;;5.13;1.63;;;;;;;;;;4287331;33;316742;-86
2023/11/05 09:05:28;;;;;;;3.40;1.77;;;;;;;;;;4276950;33;317020;-84
2023/11/05 09:07:55;;;;;;;2.63;1.60;;;;;;;;;;4285241;33;317353;-87
2023/11/05 09:10:25;;;;;;;4.50;1.57;;;;;;;;;;4287599;33;316629;-84
2023/11/05 09:12:52;;;;;;;4.30;2.13;;;;;;;;;;4262254;33;416958;-85
2023/11/05 09:15:20;;;;;;;7.10;2.13;;;;;;;;;;4287740;33;316679;-86
2023/11/05 09:17:48;;;;;;;3.20;2.10;;;;;;;;;;4276320;33;317573;-85
2023/11/05 09:20:16;;;;;;;2.63;1.50;;;;;;;;;;4301178;33;316846;-88
2023/11/05 09:22:43;;;;;;;3.57;1.63;;;;;;;;;;4282741;33;317738;-87
2023/11/05 09:25:10;;;;;;;2.97;1.90;;;;;;;;;;4301203;33;317477;-88
2023/11/05 09:27:38;;;;;;;3.97;1.37;;;;;;;;;;4287853;33;317332;-88
2023/11/05 09:30:10;;;;;;;3.53;1.37;;;;;;;;;;4273079;33;317204;-86
2023/11/05 09:32:37;;;;;;;3.03;1.20;;;;;;;;;;4269283;33;329427;-86
2023/11/05 09:35:07;;;;;;;4.20;1.57;;;;;;;;;;4284964;33;353133;-81
2023/11/05 09:37:34;;;;;;;6.67;2.53;;;;;;;;;;4276356;33;317439;-81
2023/11/05 09:40:01;;;;;;;7.63;3.20;;;;;;;;;;4284915;33;317472;-82
2023/11/05 09:42:31;;;;;;;10.67;2.97;;;;;;;;;;4274569;33;317041;-85
2023/11/05 09:44:59;;;;;;;7.47;2.33;;;;;;;;;;4281723;33;317528;-88
2023/11/05 09:47:27;;;;;;;5.30;1.77;;;;;;;;;;4286727;33;317146;-85
2023/11/05 09:49:54;;;;;;;4.80;2.47;;;;;;;;;;4272439;33;418206;-83
2023/11/05 09:52:22;;;;;;;6.57;3.30;;;;;;;;;;4283343;33;316713;-84
2023/11/05 09:54:49;;;;;;;11.00;3.10;;;;;;;;;;4266987;33;317256;-86
2023/11/05 09:57:16;;;;;;;9.23;4.07;;;;;;;;;;4284659;33;318555;-85
2023/11/05 09:59:45;;;;;;;6.70;2.43;;;;;;;;;;4273406;33;317411;-85
2023/11/05 10:02:12;;;;;;;3.57;2.23;;;;;;;;;;4285104;33;317240;-82
2023/11/05 10:04:39;;;;;;;7.37;2.60;;;;;;;;;;4266194;33;318706;-83
2023/11/05 10:07:06;;;;;;;5.30;3.03;;;;;;;;;;4275682;33;317084;-80
2023/11/05 10:09:34;;;;;;;11.03;2.70;;;;;;;;;;4261013;33;317892;-81
2023/11/05 10:12:03;;;;;;;6.65;1.50;;;;;;;;;;4271121;33;317497;-82
2023/11/05 10:14:30;;;;;;;5.70;2.08;;;;;;;;;;4259847;33;336243;-86
2023/11/05 10:16:57;;;;;;;3.25;2.22;;;;;;;;;;4277260;33;317427;-86
2023/11/05 10:19:25;;;;;;;4.25;1.85;;;;;;;;;;4285898;33;317177;-84
2023/11/05 10:21:52;;;;;;;6.53;1.98;;;;;;;;;;4266309;33;317187;-87
2023/11/05 10:24:39;;;;;;;3.65;2.12;;;;;;;;;;4282749;33;317243;-82
2023/11/05 10:27:07;;;;;;;12.25;3.80;;;;;;;;;;4272449;33;416611;-80
2023/11/05 10:29:34;;;;;;;5.50;2.62;;;;;;;;;;4275984;33;318533;-81
2023/11/05 10:32:03;;;;;;;8.50;2.70;;;;;;;;;;4286030;33;317310;-80
2023/11/05 10:34:32;;;;;;;3.67;1.65;;;;;;;;;;4276563;33;317458;-84
2023/11/05 10:36:59;;;;;;;5.57;1.37;;;;;;;;;;4275035;33;316857;-87
2023/11/05 10:39:26;;;;;;;6.68;1.30;;;;;;;;;;4268164;33;331752;-89
2023/11/05 10:41:53;;;;;;;1.83;1.10;;;;;;;;;;4255634;33;417015;-87
2023/11/05 10:44:22;;;;;;;0.88;0.75;;;;;;;;;;4278340;33;316904;-84
2023/11/05 10:46:55;;;;;;;8.02;1.35;;;;;;;;;;4263761;33;316583;-88
2023/11/05 10:49:22;;;;;;;5.55;1.05;;;;;;;;;;4281082;33;316973;-85
2023/11/05 10:51:49;;;;;;;11.80;1.17;;;;;;;;;;4271611;33;317633;-82
2023/11/05 10:54:17;;;;;;;5.87;1.37;;;;;;;;;;4279638;33;318831;-82
2023/11/05 10:56:45;;;;;;;4.57;1.10;;;;;;;;;;4264758;33;317228;-84
2023/11/05 10:59:12;;;;;;;6.75;1.20;;;;;;;;;;4284840;33;317097;-85
2023/11/05 11:01:41;;;;;;;1.55;0.73;;;;;;;;;;4268747;33;317573;-84
2023/11/05 11:04:10;;;;;;;3.90;0.98;;;;;;;;;;4283178;33;317519;-88
2023/11/05 11:06:39;;;;;;;4.15;1.23;;;;;;;;;;4259294;33;317368;-83
2023/11/05 11:09:24;;;;;;;5.75;1.30;;;;;;;;;;4281592;33;317857;-83
2023/11/05 11:11:53;;;;;;;6.20;1.58;;;;;;;;;;4275975;33;316988;-85
2023/11/05 11:14:20;;;;;;;6.15;1.15;;;;;;;;;;4286056;33;317519;-87
2023/11/05 11:16:48;;;;;;;3.25;1.27;;;;;;;;;;4246617;33;317163;-84
2023/11/05 11:19:18;;;;;;;4.05;1.10;;;;;;;;;;4285600;33;317349;-82
2023/11/05 11:21:50;;;;;;;9.07;2.47;;;;;;;;;;4273315;33;316730;-83
2023/11/05 11:24:33;;;;;;;6.57;1.02;;;;;;;;;;4284183;33;317102;-82
2023/11/05 11:27:00;;;;;;;3.42;1.33;;;;;;;;;;4271633;33;415872;-83
2023/11/05 11:29:27;;;;;;;5.25;1.30;;;;;;;;;;4275594;33;317266;-83
2023/11/05 11:31:56;;;;;;;5.53;1.60;;;;;;;;;;4282378;33;316413;-85
2023/11/05 11:34:22;;;;;;;4.45;1.48;;;;;;;;;;4283745;33;317160;-83
2023/11/05 11:37:00;;;;;;;5.60;1.40;;;;;;;;;;4266204;33;316577;-86
2023/11/05 11:39:27;;;;;;;8.65;1.85;;;;;;;;;;4269088;33;317422;-83
2023/11/05 11:41:54;;;;;;;2.35;0.80;;;;;;;;;;4256992;33;418243;-86
2023/11/05 11:44:21;;;;;;;5.80;1.70;;;;;;;;;;4284609;33;317442;-84
2023/11/05 11:46:48;;;;;;;2.58;1.10;;;;;;;;;;4267063;33;317687;-84
2023/11/05 11:49:17;;;;;;;3.05;1.30;;;;;;;;;;4285710;33;317383;-84
2023/11/05 11:51:44;;;;;;;2.22;0.80;;;;;;;;;;4273591;33;317301;-83
2023/11/05 11:54:10;;;;;;;3.87;1.30;;;;;;;;;;4278145;33;316592;-83
2023/11/05 11:56:38;;;;;;;2.28;1.00;;;;;;;;;;4255781;33;317446;-86
2023/11/05 11:59:05;;;;;;;7.82;1.17;;;;;;;;;;4278065;33;317369;-85
2023/11/05 12:01:33;;;;;;;2.97;1.15;;;;;;;;;;4273091;33;317478;-85
2023/11/05 12:04:00;;;;;;;3.67;1.20;;;;;;;;;;4276980;33;317443;-86
2023/11/05 12:06:28;;;;;;;3.92;1.52;;;;;;;;;;4263354;33;317518;-84
2023/11/05 12:08:56;;;;;;;5.20;1.20;;;;;;;;;;4270137;33;317893;-84
2023/11/05 12:11:29;;;;;;;5.12;1.10;;;;;;;;;;4283391;33;316754;-86
2023/11/05 12:13:56;;;;;;;5.07;2.40;;;;;;;;;;4254561;33;418300;-84
2023/11/05 12:16:23;;;;;;;6.55;1.73;;;;;;;;;;4276768;33;317103;-85
2023/11/05 12:18:50;;;;;;;6.12;1.42;;;;;;;;;;4269851;33;316813;-83
2023/11/05 12:21:17;;;;;;;4.15;1.42;;;;;;;;;;4287491;33;317805;-84
2023/11/05 12:23:45;;;;;;;4.60;1.50;;;;;;;;;;4277805;33;316763;-84
2023/11/05 12:26:16;;;;;;;4.32;2.20;;;;;;;;;;4284749;33;316961;-84
2023/11/05 12:28:43;;;;;;;6.40;2.95;;;;;;;;;;4269864;33;317627;-85
2023/11/05 12:31:10;;;;;;;4.53;1.98;;;;;;;;;;4285707;33;317525;-85
2023/11/05 12:33:38;;;;;;;2.20;1.33;;;;;;;;;;4277553;33;317477;-84
2023/11/05 12:36:06;;;;;;;8.88;1.55;;;;;;;;;;4286764;33;317259;-84
2023/11/05 12:38:33;;;;;;;11.15;2.28;;;;;;;;;;4271855;33;317384;-86
2023/11/05 12:41:01;;;;;;;2.37;1.33;;;;;;;;;;4287733;33;318277;-86
2023/11/05 12:43:28;;;;;;;4.00;1.10;;;;;;;;;;4272756;33;317198;-87
2023/11/05 12:45:58;;;;;;;3.45;1.55;;;;;;;;;;4293655;33;317734;-87
2023/11/05 12:48:25;;;;;;;2.67;1.15;;;;;;;;;;4296546;33;316689;-85
2023/11/05 12:50:52;;;;;;;3.12;1.55;;;;;;;;;;4273376;33;416811;-87
2023/11/05 12:53:20;;;;;;;1.98;1.05;;;;;;;;;;4290411;33;317202;-87
2023/11/05 12:55:47;;;;;;;7.68;1.65;;;;;;;;;;4279749;33;345329;-84
2023/11/05 12:58:15;;;;;;;1.73;1.12;;;;;;;;;;4296223;33;317526;-86
2023/11/05 13:00:41;;;;;;;3.90;1.20;;;;;;;;;;4267638;33;316488;-87
2023/11/05 13:03:09;;;;;;;4.60;1.20;;;;;;;;;;4284866;33;316428;-88
2023/11/05 13:05:36;;;;;;;4.47;1.43;;;;;;;;;;4274808;33;339463;-87
2023/11/05 13:08:03;;;;;;;4.37;1.52;;;;;;;;;;4285365;33;317120;-85
2023/11/05 13:10:30;;;;;;;1.90;0.80;;;;;;;;;;4275993;33;317286;-86
2023/11/05 13:12:57;;;;;;;8.88;1.77;;;;;;;;;;4276715;33;317332;-84
2023/11/05 13:15:26;;;;;;;5.00;3.10;;;;;;;;;;4287794;33;316786;-86
2023/11/05 13:17:52;;;;;;;1.73;1.17;;;;;;;;;;4272152;33;417367;-85
2023/11/05 13:20:19;;;;;;;6.05;1.48;;;;;;;;;;4284010;33;317236;-85
2023/11/05 13:22:46;;;;;;;5.55;1.50;;;;;;;;;;4255145;33;317023;-85
2023/11/05 13:25:14;;;;;;;5.68;1.55;;;;;;;;;;4271934;33;316502;-86
2023/11/05 13:27:41;;;;;;;3.55;1.12;;;;;;;;;;4267160;33;317861;-86
2023/11/05 13:30:09;;;;;;;3.10;1.20;;;;;;;;;;4278011;33;317234;-90
2023/11/05 13:32:39;;;;;;;4.93;1.55;;;;;;;;;;4265915;33;317431;-84
2023/11/05 13:35:07;;;;;;;6.70;1.17;;;;;;;;;;4283741;33;317518;-83
2023/11/05 13:37:34;;;;;;;6.03;1.50;;;;;;;;;;4274073;33;316833;-83
2023/11/05 13:40:03;;;;;;;2.85;1.10;;;;;;;;;;4281494;33;316899;-84
2023/11/05 13:42:29;;;;;;;6.20;1.52;;;;;;;;;;4260762;33;317789;-83
2023/11/05 13:44:58;;;;;;;4.43;1.40;;;;;;;;;;4277964;33;317246;-84
2023/11/05 13:47:24;;;;;;;3.85;1.37;;;;;;;;;;4283976;33;317020;-83
2023/11/05 13:49:54;;;;;;;5.65;1.45;;;;;;;;;;4273780;33;317238;-84
2023/11/05 13:52:21;;;;;;;1.92;1.20;;;;;;;;;;4284250;33;329840;-84
2023/11/05 13:54:48;;;;;;;9.00;1.75;;;;;;;;;;4267296;33;343979;-84
2023/11/05 13:57:14;;;;;;;7.30;1.83;;;;;;;;;;4285209;33;317240;-83
2023/11/05 13:59:42;;;;;;;3.80;1.33;;;;;;;;;;4274382;33;317554;-85
2023/11/05 14:02:08;;;;;;;6.10;1.42;;;;;;;;;;4289241;33;317461;-84
2023/11/05 14:04:35;;;;;;;5.55;2.03;;;;;;;;;;4267384;33;317511;-85
2023/11/05 14:07:03;;;;;;;2.87;1.35;;;;;;;;;;4274240;33;317889;-85
2023/11/05 14:09:32;;;;;;;2.65;1.42;;;;;;;;;;4267444;33;408293;-85
2023/11/05 14:12:02;;;;;;;5.62;1.60;;;;;;;;;;4286626;33;317290;-87
2023/11/05 14:14:29;;;;;;;4.90;1.52;;;;;;;;;;4275943;33;317370;-83
2023/11/05 14:16:56;;;;;;;7.32;1.65;;;;;;;;;;4278929;33;317284;-84
2023/11/05 14:19:23;;;;;;;4.43;1.33;;;;;;;;;;4285467;33;317135;-83
2023/11/05 14:21:50;;;;;;;6.57;1.92;;;;;;;;;;4276169;33;317703;-84
2023/11/05 14:24:18;;;;;;;4.75;2.47;;;;;;;;;;4285830;33;317189;-84